Terminal Aerodrome Forecast
Issued by NWS Wilmington, NC

Home | Current Version | Previous Version | Text Only | Print | Product List | Glossary On
Versions: 1 2 3 4 5 6 7 8 9 10 11 12 13 14
000
FTUS42 KILM 220500
TAFFLO
TAF
KFLO 220524Z 2206/2306 05009KT 5SM -RA BR SCT010 OVC020
      TEMPO 2207/2209 6SM BR OVC010
     FM220900 03010KT 4SM -RA BR BKN008 OVC012
     FM221500 02007KT P6SM OVC008
     FM222300 36004KT 2SM BR OVC004=

USA.gov is the U.S. government's official web portal to all federal, state and local government web resources and services.